Charter Quote
Worldwide +1-877-727-2538 Call
Select Language Lang
SAFETY RELIABILITY EXPERIENCE

Private Jet Charter Services - Ganzhou Airport (ZSGZ)

Paramount Business Jets offers private jet charter flights and luxury airliner charters to and from Ganzhou Airport.

AIRPORT INFORMATION
ICAOZSGZ
LOCATIONGanzhou, China
FACILITY TYPEAIRPORT

At Paramount Business Jets you can hire chartered private jets to and from Ganzhou Airport with as little as 4 hours of notice. All flights booked via Paramount Business Jets are operated by certified direct air carriers that meet and exceed the FAA part 135 and 121 protocol or a foreign equivalent safety authority. Furthermore, Paramount Business Jets subscribes to ARGUS for their third party safety checks of operators, aircraft, and crews prior each and every flight to and from Ganzhou Airport and worldwide.

  • Quote a trip using Ganzhou Airport or call us 24/7 - 365 days a year at +1-877-727-2538.
Questions? Call +1-877-727-2538

METAR Weather Data at Ganzhou Airport, ZSGZ

STATIONZSGZ
OBSERVEDWed Jul 11, 13:00 UTC
NOWMon Jul 22, 09:55 UTC
AGE9020:55 hr ago
WINDvaries at 2 mph
VISIBILITY16 miles
CONDITIONSlight rain showers
CLOUDSovercast
TEMP77°F (25°C)
DEWPT73°F (23°C)
HUMIDITY89%
BAROMETER1002 hPa (29.59 in Hg)
METARZSGZ 111300Z VRB01MPS 9999 -SHRA FEW033CB OVC053 25/23 Q1002 NOSIG

Call us on +1-877-727-2538 (24 Hours) to Hire a Private Jet or Get a Quick Quote.

Find Airports Near any Location

Processing
...